sensor_id;sensor_type;location;lat;lon;timestamp;P1;durP1;ratioP1;P2;durP2;ratioP2
69910;SDS011;63555;49.920;17.868;2023-06-22T00:01:07;12.63;;;5.47;;
69910;SDS011;63555;49.920;17.868;2023-06-22T00:06:08;14.20;;;5.33;;
69910;SDS011;63555;49.920;17.868;2023-06-22T00:11:08;13.30;;;5.40;;
69910;SDS011;63555;49.920;17.868;2023-06-22T00:16:09;18.53;;;5.70;;
69910;SDS011;63555;49.920;17.868;2023-06-22T00:21:09;14.53;;;5.60;;
69910;SDS011;63555;49.920;17.868;2023-06-22T00:26:09;14.33;;;5.67;;
69910;SDS011;63555;49.920;17.868;2023-06-22T00:31:11;16.15;;;5.60;;
69910;SDS011;63555;49.920;17.868;2023-06-22T00:36:11;12.37;;;5.47;;
69910;SDS011;63555;49.920;17.868;2023-06-22T00:41:16;15.35;;;5.32;;
69910;SDS011;63555;49.920;17.868;2023-06-22T00:46:17;16.85;;;6.05;;
69910;SDS011;63555;49.920;17.868;2023-06-22T00:51:18;15.20;;;6.00;;
69910;SDS011;63555;49.920;17.868;2023-06-22T00:56:24;15.23;;;5.70;;
69910;SDS011;63555;49.920;17.868;2023-06-22T01:01:29;20.70;;;5.80;;
69910;SDS011;63555;49.920;17.868;2023-06-22T01:06:32;13.30;;;5.68;;
69910;SDS011;63555;49.920;17.868;2023-06-22T01:11:40;24.88;;;6.47;;
69910;SDS011;63555;49.920;17.868;2023-06-22T01:16:45;30.30;;;7.43;;
69910;SDS011;63555;49.920;17.868;2023-06-22T01:21:48;30.43;;;8.03;;
69910;SDS011;63555;49.920;17.868;2023-06-22T01:32:01;24.80;;;7.90;;
69910;SDS011;63555;49.920;17.868;2023-06-22T01:37:05;19.58;;;7.50;;
69910;SDS011;63555;49.920;17.868;2023-06-22T01:42:07;27.83;;;8.38;;
69910;SDS011;63555;49.920;17.868;2023-06-22T01:47:07;22.33;;;8.93;;
69910;SDS011;63555;49.920;17.868;2023-06-22T01:52:08;29.63;;;8.33;;
69910;SDS011;63555;49.920;17.868;2023-06-22T01:57:08;19.50;;;8.50;;
69910;SDS011;63555;49.920;17.868;2023-06-22T02:02:11;20.00;;;8.10;;
69910;SDS011;63555;49.920;17.868;2023-06-22T02:07:13;20.00;;;8.18;;
69910;SDS011;63555;49.920;17.868;2023-06-22T02:12:18;16.13;;;7.93;;
69910;SDS011;63555;49.920;17.868;2023-06-22T02:17:23;26.98;;;9.90;;
69910;SDS011;63555;49.920;17.868;2023-06-22T02:22:25;16.63;;;8.60;;
69910;SDS011;63555;49.920;17.868;2023-06-22T02:27:25;29.90;;;9.47;;
69910;SDS011;63555;49.920;17.868;2023-06-22T02:32:26;30.57;;;9.60;;
69910;SDS011;63555;49.920;17.868;2023-06-22T02:37:26;31.80;;;9.87;;
69910;SDS011;63555;49.920;17.868;2023-06-22T02:42:29;22.42;;;9.30;;
69910;SDS011;63555;49.920;17.868;2023-06-22T02:47:31;34.67;;;10.07;;
69910;SDS011;63555;49.920;17.868;2023-06-22T02:52:32;35.83;;;10.05;;
69910;SDS011;63555;49.920;17.868;2023-06-22T02:57:32;27.30;;;9.00;;
69910;SDS011;63555;49.920;17.868;2023-06-22T03:02:32;24.03;;;9.77;;
69910;SDS011;63555;49.920;17.868;2023-06-22T03:07:33;30.17;;;9.67;;
69910;SDS011;63555;49.920;17.868;2023-06-22T03:12:33;27.63;;;9.63;;
69910;SDS011;63555;49.920;17.868;2023-06-22T03:17:34;20.53;;;8.17;;
69910;SDS011;63555;49.920;17.868;2023-06-22T03:22:36;24.50;;;9.65;;
69910;SDS011;63555;49.920;17.868;2023-06-22T03:27:41;35.17;;;10.10;;
69910;SDS011;63555;49.920;17.868;2023-06-22T03:32:42;39.22;;;11.35;;
69910;SDS011;63555;49.920;17.868;2023-06-22T03:37:43;31.50;;;11.03;;
69910;SDS011;63555;49.920;17.868;2023-06-22T03:42:43;47.13;;;12.53;;
69910;SDS011;63555;49.920;17.868;2023-06-22T03:47:44;29.00;;;11.30;;
69910;SDS011;63555;49.920;17.868;2023-06-22T03:52:44;29.47;;;11.80;;
69910;SDS011;63555;49.920;17.868;2023-06-22T03:57:44;27.73;;;10.93;;
69910;SDS011;63555;49.920;17.868;2023-06-22T04:02:45;30.73;;;11.10;;
69910;SDS011;63555;49.920;17.868;2023-06-22T04:07:46;21.75;;;10.82;;
69910;SDS011;63555;49.920;17.868;2023-06-22T04:12:47;24.57;;;11.57;;
69910;SDS011;63555;49.920;17.868;2023-06-22T04:17:47;29.03;;;12.00;;
69910;SDS011;63555;49.920;17.868;2023-06-22T04:22:48;24.27;;;11.82;;
69910;SDS011;63555;49.920;17.868;2023-06-22T04:27:49;20.83;;;12.30;;
69910;SDS011;63555;49.920;17.868;2023-06-22T04:32:50;28.13;;;13.50;;
69910;SDS011;63555;49.920;17.868;2023-06-22T04:37:57;32.15;;;14.52;;
69910;SDS011;63555;49.920;17.868;2023-06-22T04:42:58;27.60;;;14.93;;
69910;SDS011;63555;49.920;17.868;2023-06-22T04:48:02;28.23;;;13.68;;
69910;SDS011;63555;49.920;17.868;2023-06-22T04:53:02;29.27;;;14.77;;
69910;SDS011;63555;49.920;17.868;2023-06-22T04:58:05;51.47;;;19.88;;
69910;SDS011;63555;49.920;17.868;2023-06-22T05:03:05;25.50;;;15.60;;
69910;SDS011;63555;49.920;17.868;2023-06-22T05:08:06;39.17;;;20.70;;
69910;SDS011;63555;49.920;17.868;2023-06-22T05:13:07;54.37;;;23.47;;
69910;SDS011;63555;49.920;17.868;2023-06-22T05:18:07;43.93;;;23.60;;
69910;SDS011;63555;49.920;17.868;2023-06-22T05:23:08;39.17;;;23.92;;
69910;SDS011;63555;49.920;17.868;2023-06-22T05:28:08;47.27;;;26.10;;
69910;SDS011;63555;49.920;17.868;2023-06-22T05:33:11;45.43;;;25.40;;
69910;SDS011;63555;49.920;17.868;2023-06-22T05:38:11;44.73;;;26.57;;
69910;SDS011;63555;49.920;17.868;2023-06-22T05:43:11;43.87;;;27.63;;
69910;SDS011;63555;49.920;17.868;2023-06-22T05:48:12;37.40;;;26.13;;
69910;SDS011;63555;49.920;17.868;2023-06-22T05:53:12;43.20;;;26.63;;
69910;SDS011;63555;49.920;17.868;2023-06-22T05:58:13;46.13;;;26.77;;
69910;SDS011;63555;49.920;17.868;2023-06-22T06:03:13;38.90;;;26.35;;
69910;SDS011;63555;49.920;17.868;2023-06-22T06:08:17;37.28;;;24.95;;
69910;SDS011;63555;49.920;17.868;2023-06-22T06:13:17;36.20;;;24.07;;
69910;SDS011;63555;49.920;17.868;2023-06-22T06:18:17;36.10;;;25.50;;
69910;SDS011;63555;49.920;17.868;2023-06-22T06:23:18;35.10;;;23.90;;
69910;SDS011;63555;49.920;17.868;2023-06-22T06:28:18;34.83;;;24.07;;
69910;SDS011;63555;49.920;17.868;2023-06-22T06:33:19;35.42;;;25.45;;
69910;SDS011;63555;49.920;17.868;2023-06-22T06:38:20;38.35;;;24.48;;
69910;SDS011;63555;49.920;17.868;2023-06-22T07:01:11;30.42;;;21.05;;
69910;SDS011;63555;49.920;17.868;2023-06-22T07:06:13;30.13;;;20.42;;
69910;SDS011;63555;49.920;17.868;2023-06-22T07:11:13;30.10;;;22.13;;
69910;SDS011;63555;49.920;17.868;2023-06-22T07:16:14;25.07;;;18.27;;
69910;SDS011;63555;49.920;17.868;2023-06-22T07:21:14;26.20;;;19.20;;
69910;SDS011;63555;49.920;17.868;2023-06-22T07:26:14;24.53;;;17.47;;
69910;SDS011;63555;49.920;17.868;2023-06-22T07:31:16;24.77;;;18.75;;
69910;SDS011;63555;49.920;17.868;2023-06-22T07:36:18;74.60;;;20.77;;
69910;SDS011;63555;49.920;17.868;2023-06-22T07:41:19;293.20;;;39.47;;
69910;SDS011;63555;49.920;17.868;2023-06-22T07:46:32;17.75;;;12.10;;
69910;SDS011;63555;49.920;17.868;2023-06-22T07:51:33;18.40;;;12.23;;
69910;SDS011;63555;49.920;17.868;2023-06-22T07:56:34;15.75;;;10.90;;
69910;SDS011;63555;49.920;17.868;2023-06-22T08:01:34;18.77;;;11.93;;
69910;SDS011;63555;49.920;17.868;2023-06-22T08:06:35;18.50;;;11.47;;
69910;SDS011;63555;49.920;17.868;2023-06-22T08:11:36;15.05;;;11.00;;
69910;SDS011;63555;49.920;17.868;2023-06-22T08:16:36;16.10;;;11.37;;
69910;SDS011;63555;49.920;17.868;2023-06-22T08:21:36;19.45;;;11.90;;
69910;SDS011;63555;49.920;17.868;2023-06-22T08:26:37;211.20;;;41.23;;
69910;SDS011;63555;49.920;17.868;2023-06-22T08:31:38;18.83;;;14.53;;
69910;SDS011;63555;49.920;17.868;2023-06-22T08:36:38;20.23;;;15.13;;
69910;SDS011;63555;49.920;17.868;2023-06-22T08:41:41;17.07;;;14.10;;
69910;SDS011;63555;49.920;17.868;2023-06-22T08:46:41;16.33;;;14.50;;
69910;SDS011;63555;49.920;17.868;2023-06-22T08:51:42;16.93;;;14.40;;
69910;SDS011;63555;49.920;17.868;2023-06-22T08:56:44;19.23;;;14.32;;
69910;SDS011;63555;49.920;17.868;2023-06-22T09:01:44;18.83;;;14.13;;
69910;SDS011;63555;49.920;17.868;2023-06-22T09:06:48;15.45;;;12.63;;
69910;SDS011;63555;49.920;17.868;2023-06-22T09:11:51;15.80;;;13.33;;
69910;SDS011;63555;49.920;17.868;2023-06-22T09:16:51;15.95;;;12.57;;
69910;SDS011;63555;49.920;17.868;2023-06-22T09:21:51;17.43;;;14.43;;
69910;SDS011;63555;49.920;17.868;2023-06-22T09:26:52;17.03;;;14.90;;
69910;SDS011;63555;49.920;17.868;2023-06-22T09:31:52;17.90;;;13.80;;
69910;SDS011;63555;49.920;17.868;2023-06-22T09:36:53;16.83;;;13.50;;
69910;SDS011;63555;49.920;17.868;2023-06-22T09:41:55;16.30;;;12.97;;
69910;SDS011;63555;49.920;17.868;2023-06-22T09:46:55;14.00;;;12.30;;
69910;SDS011;63555;49.920;17.868;2023-06-22T09:51:55;13.43;;;11.70;;
69910;SDS011;63555;49.920;17.868;2023-06-22T09:56:56;11.87;;;10.67;;
69910;SDS011;63555;49.920;17.868;2023-06-22T10:01:56;12.50;;;11.20;;
69910;SDS011;63555;49.920;17.868;2023-06-22T10:06:57;13.20;;;11.80;;
69910;SDS011;63555;49.920;17.868;2023-06-22T10:11:57;12.57;;;11.33;;
69910;SDS011;63555;49.920;17.868;2023-06-22T10:16:57;15.03;;;11.57;;
69910;SDS011;63555;49.920;17.868;2023-06-22T10:21:58;13.90;;;11.87;;
69910;SDS011;63555;49.920;17.868;2023-06-22T10:26:58;11.37;;;8.83;;
69910;SDS011;63555;49.920;17.868;2023-06-22T10:31:59;10.43;;;9.10;;
69910;SDS011;63555;49.920;17.868;2023-06-22T10:36:59;13.07;;;9.93;;
69910;SDS011;63555;49.920;17.868;2023-06-22T10:41:59;15.23;;;11.37;;
69910;SDS011;63555;49.920;17.868;2023-06-22T10:47:00;13.33;;;10.97;;
69910;SDS011;63555;49.920;17.868;2023-06-22T10:52:00;10.40;;;9.37;;
69910;SDS011;63555;49.920;17.868;2023-06-22T10:57:01;11.40;;;10.00;;
69910;SDS011;63555;49.920;17.868;2023-06-22T11:02:02;12.05;;;10.68;;
69910;SDS011;63555;49.920;17.868;2023-06-22T11:07:02;12.30;;;9.53;;
69910;SDS011;63555;49.920;17.868;2023-06-22T11:12:03;11.97;;;10.73;;
69910;SDS011;63555;49.920;17.868;2023-06-22T11:17:04;11.30;;;10.13;;
69910;SDS011;63555;49.920;17.868;2023-06-22T11:22:04;12.80;;;10.27;;
69910;SDS011;63555;49.920;17.868;2023-06-22T11:27:05;12.40;;;10.77;;
69910;SDS011;63555;49.920;17.868;2023-06-22T11:32:06;10.37;;;9.37;;
69910;SDS011;63555;49.920;17.868;2023-06-22T11:37:07;10.25;;;9.05;;
69910;SDS011;63555;49.920;17.868;2023-06-22T11:42:08;12.57;;;9.60;;
69910;SDS011;63555;49.920;17.868;2023-06-22T11:47:09;10.93;;;9.77;;
69910;SDS011;63555;49.920;17.868;2023-06-22T11:52:09;11.00;;;9.80;;
69910;SDS011;63555;49.920;17.868;2023-06-22T11:57:10;13.23;;;9.50;;
69910;SDS011;63555;49.920;17.868;2023-06-22T12:02:10;9.90;;;8.90;;
69910;SDS011;63555;49.920;17.868;2023-06-22T12:07:10;11.17;;;10.10;;
69910;SDS011;63555;49.920;17.868;2023-06-22T12:12:11;11.10;;;10.00;;
69910;SDS011;63555;49.920;17.868;2023-06-22T12:17:11;12.00;;;9.43;;
69910;SDS011;63555;49.920;17.868;2023-06-22T12:22:12;10.80;;;9.67;;
69910;SDS011;63555;49.920;17.868;2023-06-22T12:27:12;11.90;;;9.43;;
69910;SDS011;63555;49.920;17.868;2023-06-22T12:32:13;10.27;;;9.10;;
69910;SDS011;63555;49.920;17.868;2023-06-22T12:37:13;10.82;;;8.90;;
69910;SDS011;63555;49.920;17.868;2023-06-22T12:42:15;12.00;;;9.33;;
69910;SDS011;63555;49.920;17.868;2023-06-22T12:47:16;12.40;;;9.40;;
69910;SDS011;63555;49.920;17.868;2023-06-22T12:52:16;13.03;;;9.10;;
69910;SDS011;63555;49.920;17.868;2023-06-22T12:57:16;10.20;;;9.20;;
69910;SDS011;63555;49.920;17.868;2023-06-22T13:02:17;10.43;;;9.43;;
69910;SDS011;63555;49.920;17.868;2023-06-22T13:07:18;11.37;;;9.90;;
69910;SDS011;63555;49.920;17.868;2023-06-22T13:12:19;11.83;;;10.33;;
69910;SDS011;63555;49.920;17.868;2023-06-22T13:17:20;10.15;;;9.15;;
69910;SDS011;63555;49.920;17.868;2023-06-22T13:22:26;11.47;;;10.27;;
69910;SDS011;63555;49.920;17.868;2023-06-22T13:27:29;11.32;;;10.20;;
69910;SDS011;63555;49.920;17.868;2023-06-22T13:32:29;10.73;;;9.63;;
69910;SDS011;63555;49.920;17.868;2023-06-22T13:37:29;12.93;;;9.47;;
69910;SDS011;63555;49.920;17.868;2023-06-22T13:42:30;11.10;;;10.00;;
69910;SDS011;63555;49.920;17.868;2023-06-22T13:47:31;11.33;;;10.23;;
69910;SDS011;63555;49.920;17.868;2023-06-22T13:52:31;11.20;;;10.07;;
69910;SDS011;63555;49.920;17.868;2023-06-22T13:57:32;11.97;;;10.77;;
69910;SDS011;63555;49.920;17.868;2023-06-22T14:02:33;12.38;;;10.48;;
69910;SDS011;63555;49.920;17.868;2023-06-22T14:07:33;11.17;;;10.07;;
69910;SDS011;63555;49.920;17.868;2023-06-22T14:12:33;13.13;;;10.00;;
69910;SDS011;63555;49.920;17.868;2023-06-22T14:17:34;11.00;;;9.97;;
69910;SDS011;63555;49.920;17.868;2023-06-22T14:22:34;11.13;;;10.03;;
69910;SDS011;63555;49.920;17.868;2023-06-22T14:27:35;13.77;;;10.38;;
69910;SDS011;63555;49.920;17.868;2023-06-22T14:32:35;11.80;;;10.10;;
69910;SDS011;63555;49.920;17.868;2023-06-22T14:37:36;11.00;;;9.90;;
69910;SDS011;63555;49.920;17.868;2023-06-22T14:42:36;12.37;;;10.17;;
69910;SDS011;63555;49.920;17.868;2023-06-22T14:47:36;11.03;;;9.97;;
69910;SDS011;63555;49.920;17.868;2023-06-22T14:52:37;11.17;;;10.03;;
69910;SDS011;63555;49.920;17.868;2023-06-22T14:57:37;11.80;;;10.63;;
69910;SDS011;63555;49.920;17.868;2023-06-22T15:02:37;11.23;;;10.03;;
69910;SDS011;63555;49.920;17.868;2023-06-22T15:07:38;12.20;;;10.90;;
69910;SDS011;63555;49.920;17.868;2023-06-22T15:12:39;13.25;;;9.88;;
69910;SDS011;63555;49.920;17.868;2023-06-22T15:17:40;10.40;;;9.40;;
69910;SDS011;63555;49.920;17.868;2023-06-22T15:22:40;13.27;;;9.57;;
69910;SDS011;63555;49.920;17.868;2023-06-22T15:27:40;12.30;;;9.63;;
69910;SDS011;63555;49.920;17.868;2023-06-22T15:32:42;11.20;;;9.83;;
69910;SDS011;63555;49.920;17.868;2023-06-22T15:37:46;11.23;;;9.47;;
69910;SDS011;63555;49.920;17.868;2023-06-22T15:42:49;11.13;;;10.00;;
69910;SDS011;63555;49.920;17.868;2023-06-22T15:47:50;13.50;;;10.30;;
69910;SDS011;63555;49.920;17.868;2023-06-22T15:52:50;10.93;;;9.60;;
69910;SDS011;63555;49.920;17.868;2023-06-22T15:57:51;10.73;;;9.20;;
69910;SDS011;63555;49.920;17.868;2023-06-22T16:02:52;10.57;;;9.40;;
69910;SDS011;63555;49.920;17.868;2023-06-22T16:07:55;11.67;;;9.60;;
69910;SDS011;63555;49.920;17.868;2023-06-22T16:12:56;9.73;;;8.73;;
69910;SDS011;63555;49.920;17.868;2023-06-22T17:11:11;11.70;;;7.50;;
69910;SDS011;63555;49.920;17.868;2023-06-22T17:16:13;12.05;;;7.60;;
69910;SDS011;63555;49.920;17.868;2023-06-22T17:21:20;11.00;;;8.33;;
69910;SDS011;63555;49.920;17.868;2023-06-22T17:26:21;11.25;;;7.97;;
69910;SDS011;63555;49.920;17.868;2023-06-22T17:31:22;12.03;;;8.17;;
69910;SDS011;63555;49.920;17.868;2023-06-22T17:36:23;11.63;;;7.85;;
69910;SDS011;63555;49.920;17.868;2023-06-22T17:41:32;12.13;;;8.30;;
69910;SDS011;63555;49.920;17.868;2023-06-22T17:46:36;11.25;;;8.02;;
69910;SDS011;63555;49.920;17.868;2023-06-22T17:51:41;10.80;;;8.03;;
69910;SDS011;63555;49.920;17.868;2023-06-22T17:56:42;10.95;;;7.85;;
69910;SDS011;63555;49.920;17.868;2023-06-22T18:01:48;11.05;;;8.38;;
69910;SDS011;63555;49.920;17.868;2023-06-22T18:06:48;10.93;;;8.03;;
69910;SDS011;63555;49.920;17.868;2023-06-22T18:11:49;11.50;;;8.45;;
69910;SDS011;63555;49.920;17.868;2023-06-22T18:16:50;12.87;;;8.13;;
69910;SDS011;63555;49.920;17.868;2023-06-22T18:21:53;13.65;;;9.05;;
69910;SDS011;63555;49.920;17.868;2023-06-22T18:26:54;12.90;;;8.30;;
69910;SDS011;63555;49.920;17.868;2023-06-22T18:31:56;13.77;;;8.63;;
69910;SDS011;63555;49.920;17.868;2023-06-22T18:36:57;12.00;;;8.45;;
69910;SDS011;63555;49.920;17.868;2023-06-22T18:41:59;12.05;;;9.20;;
69910;SDS011;63555;49.920;17.868;2023-06-22T18:47:02;11.00;;;8.17;;
69910;SDS011;63555;49.920;17.868;2023-06-22T18:57:27;12.40;;;9.33;;
69910;SDS011;63555;49.920;17.868;2023-06-22T19:07:45;15.15;;;9.02;;
69910;SDS011;63555;49.920;17.868;2023-06-22T19:18:33;13.60;;;9.53;;
69910;SDS011;63555;49.920;17.868;2023-06-22T19:28:47;14.23;;;9.50;;
69910;SDS011;63555;49.920;17.868;2023-06-22T19:34:06;15.15;;;9.38;;
69910;SDS011;63555;49.920;17.868;2023-06-22T19:39:08;16.05;;;10.05;;
69910;SDS011;63555;49.920;17.868;2023-06-22T19:44:08;15.80;;;10.90;;
69910;SDS011;63555;49.920;17.868;2023-06-22T19:49:08;16.67;;;12.20;;
69910;SDS011;63555;49.920;17.868;2023-06-22T19:54:09;21.90;;;11.23;;
69910;SDS011;63555;49.920;17.868;2023-06-22T19:59:12;15.40;;;11.40;;
69910;SDS011;63555;49.920;17.868;2023-06-22T20:04:15;15.07;;;10.68;;
69910;SDS011;63555;49.920;17.868;2023-06-22T20:09:15;14.93;;;10.30;;
69910;SDS011;63555;49.920;17.868;2023-06-22T20:14:19;16.48;;;11.25;;
69910;SDS011;63555;49.920;17.868;2023-06-22T20:19:19;16.67;;;10.70;;
69910;SDS011;63555;49.920;17.868;2023-06-22T20:24:21;16.90;;;12.60;;
69910;SDS011;63555;49.920;17.868;2023-06-22T20:29:29;19.60;;;11.97;;
69910;SDS011;63555;49.920;17.868;2023-06-22T20:34:34;18.65;;;12.13;;
69910;SDS011;63555;49.920;17.868;2023-06-22T20:39:38;17.10;;;11.60;;
69910;SDS011;63555;49.920;17.868;2023-06-22T20:44:39;17.23;;;11.90;;
69910;SDS011;63555;49.920;17.868;2023-06-22T20:49:39;16.30;;;12.33;;
69910;SDS011;63555;49.920;17.868;2023-06-22T20:54:39;19.10;;;12.00;;
69910;SDS011;63555;49.920;17.868;2023-06-22T20:59:40;18.60;;;12.60;;
69910;SDS011;63555;49.920;17.868;2023-06-22T21:04:40;19.27;;;12.63;;
69910;SDS011;63555;49.920;17.868;2023-06-22T21:09:41;22.17;;;13.43;;
69910;SDS011;63555;49.920;17.868;2023-06-22T21:14:41;25.33;;;13.53;;
69910;SDS011;63555;49.920;17.868;2023-06-22T21:19:41;19.53;;;12.87;;
69910;SDS011;63555;49.920;17.868;2023-06-22T21:24:42;23.60;;;12.47;;
69910;SDS011;63555;49.920;17.868;2023-06-22T21:29:42;18.13;;;12.97;;
69910;SDS011;63555;49.920;17.868;2023-06-22T21:34:43;20.00;;;12.30;;
69910;SDS011;63555;49.920;17.868;2023-06-22T21:39:43;20.10;;;13.77;;
69910;SDS011;63555;49.920;17.868;2023-06-22T21:44:47;23.42;;;12.98;;
69910;SDS011;63555;49.920;17.868;2023-06-22T21:49:48;17.93;;;12.10;;
69910;SDS011;63555;49.920;17.868;2023-06-22T21:54:49;22.70;;;12.75;;
69910;SDS011;63555;49.920;17.868;2023-06-22T21:59:49;22.33;;;11.83;;
69910;SDS011;63555;49.920;17.868;2023-06-22T22:04:49;23.30;;;12.67;;
69910;SDS011;63555;49.920;17.868;2023-06-22T22:09:53;17.17;;;12.30;;
69910;SDS011;63555;49.920;17.868;2023-06-22T22:14:53;19.93;;;12.67;;
69910;SDS011;63555;49.920;17.868;2023-06-22T22:19:54;20.27;;;13.53;;
69910;SDS011;63555;49.920;17.868;2023-06-22T22:24:54;19.55;;;11.38;;
69910;SDS011;63555;49.920;17.868;2023-06-22T22:29:54;20.17;;;12.90;;
69910;SDS011;63555;49.920;17.868;2023-06-22T22:34:55;21.73;;;13.70;;
69910;SDS011;63555;49.920;17.868;2023-06-22T22:39:55;22.87;;;14.33;;
69910;SDS011;63555;49.920;17.868;2023-06-22T22:44:55;23.88;;;14.15;;
69910;SDS011;63555;49.920;17.868;2023-06-22T22:49:56;21.70;;;13.03;;
69910;SDS011;63555;49.920;17.868;2023-06-22T22:54:56;27.13;;;11.53;;
69910;SDS011;63555;49.920;17.868;2023-06-22T22:59:57;27.17;;;13.07;;
69910;SDS011;63555;49.920;17.868;2023-06-22T23:04:58;21.27;;;13.40;;
69910;SDS011;63555;49.920;17.868;2023-06-22T23:09:59;22.83;;;14.00;;
69910;SDS011;63555;49.920;17.868;2023-06-22T23:15:00;23.98;;;14.50;;
69910;SDS011;63555;49.920;17.868;2023-06-22T23:20:01;23.23;;;14.80;;
69910;SDS011;63555;49.920;17.868;2023-06-22T23:25:03;19.20;;;12.43;;
69910;SDS011;63555;49.920;17.868;2023-06-22T23:30:04;21.40;;;12.10;;
69910;SDS011;63555;49.920;17.868;2023-06-22T23:35:08;25.33;;;13.88;;
69910;SDS011;63555;49.920;17.868;2023-06-22T23:40:10;23.87;;;14.10;;
69910;SDS011;63555;49.920;17.868;2023-06-22T23:45:17;22.50;;;13.02;;
69910;SDS011;63555;49.920;17.868;2023-06-22T23:50:19;26.00;;;14.23;;
69910;SDS011;63555;49.920;17.868;2023-06-22T23:55:19;25.50;;;13.87;;
